Time;durP1;ratioP1;P1;durP2;ratioP2;P2;SDS_P1;SDS_P2;PMS_P1;PMS_P2;Temp;Humidity;BMP_temperature;BMP_pressure;BME280_temperature;BME280_humidity;BME280_pressure;Samples;Min_cycle;Max_cycle;Signal;HPM_P1;HPM_P2
2022/04/19 00:00:18;;;;;;;9.50;7.30;;;7.60;99.90;;;;;;5059283;28;20036;-92
2022/04/19 00:02:44;;;;;;;10.13;7.03;;;7.60;99.90;;;;;;5035463;28;20035;-92
2022/04/19 00:05:09;;;;;;;9.25;6.80;;;7.50;99.90;;;;;;5025499;28;20048;-92
2022/04/19 00:07:36;;;;;;;9.40;7.78;;;7.50;99.90;;;;;;5049958;28;20119;-92
2022/04/19 00:10:05;;;;;;;10.07;8.25;;;7.50;99.90;;;;;;5034707;28;20040;-93
2022/04/19 00:12:31;;;;;;;11.52;7.50;;;7.50;99.90;;;;;;5032639;28;20174;-93
2022/04/19 00:14:57;;;;;;;9.82;7.82;;;7.50;99.90;;;;;;5034591;28;20058;-92
2022/04/19 00:17:22;;;;;;;10.35;7.63;;;7.50;99.90;;;;;;5025878;28;20048;-93
2022/04/19 00:19:48;;;;;;;10.95;7.70;;;7.50;99.90;;;;;;5033145;28;20040;-92
2022/04/19 00:22:14;;;;;;;12.77;7.93;;;7.40;99.90;;;;;;5021681;28;20118;-92
2022/04/19 00:24:40;;;;;;;11.32;7.70;;;7.40;99.90;;;;;;5034990;28;20042;-92
2022/04/19 00:27:06;;;;;;;10.05;7.57;;;7.40;99.90;;;;;;5033038;28;20067;-92
2022/04/19 00:29:32;;;;;;;10.68;7.45;;;7.40;99.90;;;;;;5033937;28;20475;-91
2022/04/19 00:31:57;;;;;;;11.20;7.82;;;7.30;99.90;;;;;;5024497;28;20525;-92
2022/04/19 00:34:23;;;;;;;12.80;8.60;;;7.30;99.90;;;;;;5036736;28;20110;-92
2022/04/19 00:36:49;;;;;;;10.02;7.60;;;7.30;99.90;;;;;;5051536;28;20033;-92
2022/04/19 00:39:15;;;;;;;10.13;8.15;;;7.30;99.90;;;;;;5030019;28;20124;-92
2022/04/19 00:41:40;;;;;;;12.57;8.82;;;7.20;99.90;;;;;;5033478;28;20516;-92
2022/04/19 00:44:07;;;;;;;10.95;8.25;;;7.20;99.90;;;;;;5047482;28;20204;-92
2022/04/19 00:46:34;;;;;;;12.13;8.75;;;7.10;99.90;;;;;;5033139;28;20040;-92
2022/04/19 00:48:59;;;;;;;10.63;8.57;;;7.10;99.90;;;;;;5052463;28;20384;-92
2022/04/19 00:51:27;;;;;;;11.70;8.27;;;7.10;99.90;;;;;;5019692;28;20040;-92
2022/04/19 00:53:53;;;;;;;12.20;8.57;;;7.10;99.90;;;;;;5030803;28;20177;-92
2022/04/19 00:56:19;;;;;;;10.98;8.43;;;7.10;99.90;;;;;;5033341;28;20072;-92
2022/04/19 00:58:45;;;;;;;13.93;8.90;;;7.10;99.90;;;;;;5034175;28;20056;-92
2022/04/19 01:01:11;;;;;;;13.07;9.00;;;7.10;99.90;;;;;;5029615;28;20037;-92
2022/04/19 01:03:37;;;;;;;12.30;8.88;;;7.10;99.90;;;;;;5026395;28;20131;-91
2022/04/19 01:06:04;;;;;;;14.38;9.80;;;7.00;99.90;;;;;;5012353;28;20041;-92
2022/04/19 01:08:30;;;;;;;12.35;9.18;;;7.00;99.90;;;;;;5030062;28;20064;-92
2022/04/19 01:13:41;;;;;;;11.75;9.40;;;7.00;99.90;;;;;;5047602;28;20044;-91
2022/04/19 01:16:08;;;;;;;13.27;9.50;;;6.90;99.90;;;;;;5031706;28;20048;-92
2022/04/19 01:18:35;;;;;;;13.32;10.07;;;6.90;99.90;;;;;;5033398;28;20119;-91
2022/04/19 01:21:01;;;;;;;12.65;8.70;;;6.80;99.90;;;;;;5025081;28;20043;-91
2022/04/19 01:23:28;;;;;;;13.52;8.93;;;6.80;99.90;;;;;;5026737;28;20041;-92
2022/04/19 01:25:54;;;;;;;11.57;9.15;;;6.80;99.90;;;;;;5032533;28;20044;-93
2022/04/19 01:28:20;;;;;;;14.68;10.27;;;6.80;99.90;;;;;;5032040;28;20051;-92
2022/04/19 01:30:55;;;;;;;13.25;9.52;;;6.70;99.90;;;;;;5024911;28;20040;-92
2022/04/19 01:33:24;;;;;;;11.98;9.32;;;6.70;99.90;;;;;;5036003;28;20173;-92
2022/04/19 01:35:50;;;;;;;14.20;9.68;;;6.70;1.00;;;;;;5033151;28;20426;-91
2022/04/19 01:38:16;;;;;;;12.07;9.35;;;6.60;1.00;;;;;;5052924;28;20044;-92
2022/04/19 01:40:42;;;;;;;15.65;9.60;;;6.60;1.00;;;;;;5035195;28;20052;-92
2022/04/19 01:43:07;;;;;;;12.63;10.18;;;6.60;1.00;;;;;;5033471;28;20032;-92
2022/04/19 01:45:34;;;;;;;13.65;9.32;;;6.60;1.00;;;;;;5038986;28;20029;-91
2022/04/19 01:48:00;;;;;;;13.32;9.93;;;6.60;99.90;;;;;;5045963;28;20036;-92
2022/04/19 01:50:28;;;;;;;13.98;9.45;;;6.60;99.90;;;;;;5036613;28;20040;-92
2022/04/19 01:52:56;;;;;;;13.18;9.38;;;6.60;99.90;;;;;;5035606;28;20044;-92
2022/04/19 01:55:22;;;;;;;15.63;10.32;;;6.50;99.90;;;;;;5035910;28;20395;-92
2022/04/19 01:57:51;;;;;;;13.02;9.40;;;6.40;99.90;;;;;;5037797;28;20150;-92
2022/04/19 02:00:17;;;;;;;12.85;10.30;;;6.40;99.90;;;;;;5036284;28;20029;-92
2022/04/19 02:02:45;;;;;;;13.80;10.32;;;6.50;99.90;;;;;;5034867;28;20037;-94
2022/04/19 02:05:15;;;;;;;13.10;10.07;;;6.40;99.90;;;;;;5037062;28;20044;-92
2022/04/19 02:07:42;;;;;;;14.02;9.63;;;6.40;99.90;;;;;;5032415;28;20044;-92
2022/04/19 02:10:10;;;;;;;13.90;10.05;;;6.40;99.90;;;;;;5036637;28;20036;-92
2022/04/19 02:12:38;;;;;;;15.13;10.98;;;6.30;99.90;;;;;;5037267;28;20045;-92
2022/04/19 02:15:06;;;;;;;12.68;9.52;;;6.30;1.00;;;;;;5052034;28;20049;-92
2022/04/19 02:17:31;;;;;;;16.83;10.38;;;6.30;1.00;;;;;;5053715;28;20513;-91
2022/04/19 02:20:05;;;;;;;15.18;9.38;;;6.20;1.00;;;;;;5034257;28;20065;-93
2022/04/19 02:22:34;;;;;;;12.65;10.05;;;6.10;1.00;;;;;;5038019;28;20036;-91
2022/04/19 02:25:00;;;;;;;15.93;9.77;;;6.10;1.00;;;;;;5049509;28;20283;-92
2022/04/19 02:27:33;;;;;;;15.57;9.90;;;6.10;1.00;;;;;;5037984;28;20055;-93
2022/04/19 02:30:04;;;;;;;16.75;10.02;;;6.10;1.00;;;;;;5053957;28;20047;-92
2022/04/19 02:32:31;;;;;;;14.05;9.23;;;6.00;1.00;;;;;;5053473;28;20044;-92
2022/04/19 02:34:57;;;;;;;12.85;9.98;;;6.00;1.00;;;;;;5036813;28;20606;-92
2022/04/19 02:37:23;;;;;;;14.60;10.63;;;6.00;1.00;;;;;;5049905;28;20464;-92
2022/04/19 02:39:50;;;;;;;15.05;9.82;;;6.00;1.00;;;;;;5037001;28;20035;-93
2022/04/19 02:42:19;;;;;;;12.43;9.77;;;6.00;1.00;;;;;;5042379;28;20052;-91
2022/04/19 02:44:45;;;;;;;13.45;10.57;;;6.00;1.00;;;;;;5034548;28;20048;-92
2022/04/19 02:47:10;;;;;;;16.13;11.13;;;5.90;1.00;;;;;;5033393;28;20059;-91
2022/04/19 02:49:39;;;;;;;14.20;10.95;;;6.00;1.00;;;;;;5035983;28;20480;-91
2022/04/19 02:52:05;;;;;;;15.32;10.13;;;6.00;1.00;;;;;;5028848;28;20037;-92
2022/04/19 02:54:31;;;;;;;16.55;10.02;;;5.90;1.00;;;;;;5034208;28;20056;-92
2022/04/19 02:56:58;;;;;;;14.52;10.48;;;6.00;1.00;;;;;;5033617;28;20224;-91
2022/04/19 02:59:24;;;;;;;15.95;10.60;;;6.00;1.00;;;;;;5033407;28;20548;-92
2022/04/19 03:01:50;;;;;;;16.90;11.95;;;6.00;1.00;;;;;;5047869;28;20037;-92
2022/04/19 03:04:15;;;;;;;15.02;11.07;;;6.00;1.00;;;;;;5032777;28;20070;-91
2022/04/19 03:06:41;;;;;;;13.65;10.15;;;6.00;1.00;;;;;;5034058;28;20119;-92
2022/04/19 03:09:07;;;;;;;13.90;10.32;;;6.00;1.00;;;;;;5030440;28;20048;-92
2022/04/19 03:11:32;;;;;;;16.30;10.90;;;5.90;1.00;;;;;;5051062;28;20041;-91
2022/04/19 03:13:58;;;;;;;15.90;10.75;;;5.90;1.00;;;;;;5032141;28;20068;-92
2022/04/19 03:16:24;;;;;;;14.52;10.95;;;5.90;1.00;;;;;;5031051;28;20545;-92
2022/04/19 03:18:50;;;;;;;13.60;10.70;;;5.90;1.00;;;;;;5027526;28;20071;-92
2022/04/19 03:21:16;;;;;;;14.98;10.43;;;5.80;1.00;;;;;;5033847;28;20079;-92
2022/04/19 03:29:11;;;;;;;15.25;10.07;;;5.80;1.00;;;;;;5048309;28;20407;-92
2022/04/19 03:31:38;;;;;;;15.15;11.00;;;5.70;1.00;;;;;;5034923;28;20036;-92
2022/04/19 03:34:05;;;;;;;16.13;10.43;;;5.70;1.00;;;;;;5032224;28;20045;-91
2022/04/19 03:36:32;;;;;;;13.40;9.95;;;5.70;1.00;;;;;;5033184;28;20040;-92
2022/04/19 03:38:58;;;;;;;13.93;10.55;;;5.60;1.00;;;;;;5035424;28;20218;-92
2022/04/19 03:41:24;;;;;;;14.85;10.45;;;5.60;7.50;;;;;;5033442;28;20040;-93
2022/04/19 03:43:51;;;;;;;17.33;10.80;;;5.50;26.50;;;;;;5031791;28;20146;-91
2022/04/19 03:46:17;;;;;;;13.55;10.07;;;5.50;40.00;;;;;;5033411;28;20527;-92
2022/04/19 03:48:43;;;;;;;15.80;10.65;;;5.50;17.80;;;;;;5045049;28;20420;-92
2022/04/19 03:51:09;;;;;;;14.75;10.05;;;5.50;10.10;;;;;;5033860;28;20229;-92
2022/04/19 03:53:35;;;;;;;16.25;9.57;;;5.40;1.00;;;;;;5029328;28;20052;-92
2022/04/19 03:56:03;;;;;;;13.68;9.43;;;5.50;1.00;;;;;;5047719;28;20091;-91
2022/04/19 03:58:30;;;;;;;15.10;10.30;;;5.40;1.00;;;;;;5046756;28;20040;-92
2022/04/19 04:01:00;;;;;;;16.55;10.43;;;5.40;11.10;;;;;;5032236;28;20040;-92
2022/04/19 04:03:26;;;;;;;14.88;10.38;;;5.40;21.90;;;;;;5031069;28;20040;-92
2022/04/19 04:05:52;;;;;;;13.68;9.95;;;5.40;37.30;;;;;;5029329;28;20060;-92
2022/04/19 04:08:18;;;;;;;15.27;10.10;;;5.40;35.00;;;;;;5058799;28;20067;-91
2022/04/19 04:10:43;;;;;;;14.02;10.07;;;5.40;46.40;;;;;;5029552;28;20040;-92
2022/04/19 04:13:09;;;;;;;12.70;10.00;;;5.30;31.80;;;;;;5036132;28;20055;-91
2022/04/19 04:15:35;;;;;;;16.80;10.88;;;5.30;46.60;;;;;;5031615;28;20154;-92
2022/04/19 04:18:02;;;;;;;17.10;10.50;;;5.30;32.90;;;;;;5042131;28;20047;-92
2022/04/19 04:20:28;;;;;;;12.20;9.82;;;5.30;77.30;;;;;;5033593;28;20044;-92
2022/04/19 04:22:54;;;;;;;13.55;10.23;;;5.30;71.20;;;;;;5045407;28;20404;-91
2022/04/19 04:25:20;;;;;;;17.20;10.52;;;5.30;99.90;;;;;;5034592;28;20454;-91
2022/04/19 04:27:46;;;;;;;14.32;10.38;;;5.30;99.90;;;;;;5036886;28;20404;-91
2022/04/19 04:30:12;;;;;;;15.93;10.50;;;5.30;99.90;;;;;;5054914;28;20036;-92
2022/04/19 04:32:37;;;;;;;17.35;10.88;;;5.30;99.80;;;;;;5032359;28;20107;-92
2022/04/19 04:35:04;;;;;;;11.98;9.75;;;5.30;99.90;;;;;;5032146;28;20511;-91
2022/04/19 04:37:30;;;;;;;15.00;10.48;;;5.20;99.90;;;;;;5030920;28;20107;-92
2022/04/19 04:39:56;;;;;;;16.52;10.43;;;5.20;92.40;;;;;;5038219;28;20476;-92
2022/04/19 04:42:21;;;;;;;16.00;10.05;;;5.20;99.90;;;;;;5041443;28;20036;-91
2022/04/19 04:44:47;;;;;;;15.27;10.23;;;5.20;99.90;;;;;;5037581;28;20099;-91
2022/04/19 04:49:58;;;;;;;14.60;10.32;;;5.20;99.90;;;;;;5049521;28;20059;-92
2022/04/19 04:52:24;;;;;;;12.10;9.68;;;5.20;99.20;;;;;;5030872;28;20052;-91
2022/04/19 04:54:50;;;;;;;15.05;10.05;;;5.10;99.90;;;;;;5041573;28;20041;-91
2022/04/19 04:57:19;;;;;;;13.43;10.30;;;5.30;99.90;;;;;;5031604;28;20280;-93
2022/04/19 04:59:47;;;;;;;15.73;10.23;;;5.30;99.90;;;;;;5032948;28;20041;-92
2022/04/19 05:02:12;;;;;;;15.82;10.77;;;5.30;99.90;;;;;;5033469;28;20116;-91
2022/04/19 05:04:38;;;;;;;16.90;10.52;;;5.30;99.90;;;;;;5028796;28;20151;-91
2022/04/19 05:07:04;;;;;;;13.32;9.75;;;5.30;99.90;;;;;;5020917;28;20047;-91
2022/04/19 05:09:30;;;;;;;13.95;9.70;;;5.40;99.90;;;;;;5022583;28;20115;-92
2022/04/19 05:11:56;;;;;;;15.45;10.05;;;5.40;99.90;;;;;;5027008;28;20144;-91
2022/04/19 05:14:23;;;;;;;14.30;10.07;;;5.50;99.90;;;;;;5013749;28;20053;-91
2022/04/19 05:16:49;;;;;;;15.45;10.73;;;5.60;93.80;;;;;;5015267;28;20047;-91
2022/04/19 05:19:15;;;;;;;14.45;9.38;;;5.60;96.40;;;;;;5033085;28;20400;-91
2022/04/19 05:21:41;;;;;;;13.23;9.77;;;5.80;89.60;;;;;;5017886;28;20079;-91
2022/04/19 05:24:08;;;;;;;14.55;9.65;;;5.90;99.90;;;;;;5011476;28;20544;-92
2022/04/19 05:26:35;;;;;;;16.05;10.45;;;6.00;92.40;;;;;;5012698;28;20076;-92
2022/04/19 05:29:01;;;;;;;12.77;9.80;;;6.10;75.50;;;;;;5006843;28;20063;-91
2022/04/19 05:31:27;;;;;;;13.65;10.00;;;6.30;64.70;;;;;;5039504;28;20045;-90
2022/04/19 05:33:53;;;;;;;15.27;9.90;;;6.50;54.10;;;;;;5006867;28;20051;-91
2022/04/19 05:36:19;;;;;;;15.63;10.50;;;6.50;8.70;;;;;;5010884;28;20112;-90
2022/04/19 05:38:45;;;;;;;16.48;9.98;;;6.60;1.00;;;;;;5010520;28;20100;-91
2022/04/19 05:41:11;;;;;;;16.70;10.15;;;6.80;1.00;;;;;;5011620;28;20413;-91
2022/04/19 05:43:39;;;;;;;15.60;9.85;;;6.90;1.00;;;;;;5008136;28;20063;-90
2022/04/19 05:46:05;;;;;;;14.10;9.85;;;7.00;1.00;;;;;;5015969;28;20072;-92
2022/04/19 05:48:31;;;;;;;12.52;9.70;;;7.20;1.00;;;;;;5017418;28;20512;-91
2022/04/19 05:50:56;;;;;;;15.75;9.50;;;7.20;1.00;;;;;;5012905;28;20429;-93
2022/04/19 05:53:22;;;;;;;14.80;9.40;;;7.40;1.00;;;;;;5005402;28;20033;-92
2022/04/19 05:55:48;;;;;;;13.90;9.60;;;7.50;1.00;;;;;;5018519;28;20061;-90
2022/04/19 05:58:14;;;;;;;15.00;10.32;;;7.60;1.00;;;;;;5014035;28;20074;-91
2022/04/19 06:00:42;;;;;;;18.67;9.93;;;7.60;1.00;;;;;;5021646;28;20584;-91
2022/04/19 06:05:52;;;;;;;14.27;10.02;;;7.90;1.00;;;;;;5037566;28;20059;-92
2022/04/19 06:08:18;;;;;;;16.27;10.70;;;8.00;1.00;;;;;;5018603;28;20040;-91
2022/04/19 06:10:45;;;;;;;15.25;9.95;;;8.10;1.00;;;;;;5021331;28;20071;-90
2022/04/19 06:13:11;;;;;;;15.48;9.77;;;8.10;1.00;;;;;;5011274;28;20152;-91
2022/04/19 06:15:39;;;;;;;15.40;10.13;;;8.20;1.00;;;;;;5010173;28;20397;-92
2022/04/19 06:18:05;;;;;;;14.70;10.13;;;8.30;1.00;;;;;;5012751;28;20091;-91
2022/04/19 06:20:31;;;;;;;16.17;10.60;;;8.40;1.00;;;;;;5007307;28;20041;-92
2022/04/19 06:22:57;;;;;;;14.98;9.90;;;8.50;1.00;;;;;;5011880;28;20120;-90
2022/04/19 06:25:23;;;;;;;16.73;10.73;;;8.60;1.00;;;;;;5013960;28;20153;-92
2022/04/19 06:27:49;;;;;;;13.90;10.57;;;8.70;1.00;;;;;;5013072;28;20037;-91
2022/04/19 06:30:15;;;;;;;15.80;10.13;;;8.80;1.00;;;;;;5006892;28;20047;-91
2022/04/19 06:32:45;;;;;;;16.38;10.45;;;8.90;1.00;;;;;;5004945;28;20034;-91
2022/04/19 06:35:11;;;;;;;17.98;11.10;;;8.90;1.00;;;;;;5026599;28;20174;-91
2022/04/19 06:37:37;;;;;;;15.77;11.02;;;9.00;1.00;;;;;;5009020;28;20669;-92
2022/04/19 06:40:04;;;;;;;17.45;10.63;;;9.00;1.00;;;;;;5028771;28;20133;-93
2022/04/19 06:42:30;;;;;;;16.52;11.20;;;9.20;1.00;;;;;;5014383;28;20096;-93
2022/04/19 06:44:56;;;;;;;15.50;10.68;;;9.30;1.00;;;;;;5011250;28;20564;-93
2022/04/19 06:47:24;;;;;;;13.68;10.40;;;9.40;1.00;;;;;;5012174;28;20037;-91
2022/04/19 06:49:51;;;;;;;15.32;10.25;;;9.50;1.00;;;;;;5009317;28;20121;-91
2022/04/19 06:52:16;;;;;;;18.65;10.43;;;9.70;1.00;;;;;;5013061;28;20049;-91
2022/04/19 06:54:42;;;;;;;18.45;11.02;;;9.80;1.00;;;;;;5029533;28;20413;-91
2022/04/19 06:57:08;;;;;;;14.13;8.63;;;10.10;1.00;;;;;;5028965;28;20037;-91
2022/04/19 06:59:33;;;;;;;12.88;9.02;;;10.10;1.00;;;;;;5011715;28;20029;-92
2022/04/19 07:01:59;;;;;;;11.60;8.90;;;10.30;99.90;;;;;;5022366;28;20033;-92
2022/04/19 07:04:25;;;;;;;13.30;8.88;;;10.40;99.90;;;;;;5007205;28;20409;-92
2022/04/19 07:06:51;;;;;;;11.77;8.27;;;10.50;99.90;;;;;;5010705;28;20057;-91
2022/04/19 07:09:18;;;;;;;11.68;7.82;;;10.70;99.90;;;;;;5017463;28;20044;-92
2022/04/19 07:11:44;;;;;;;11.13;7.85;;;10.90;99.90;;;;;;5022714;28;20033;-93
2022/04/19 07:14:09;;;;;;;10.35;7.50;;;11.00;99.90;;;;;;5019390;28;20055;-91
2022/04/19 07:16:35;;;;;;;10.30;7.43;;;11.20;99.90;;;;;;5030435;28;20334;-91
2022/04/19 07:19:01;;;;;;;12.75;7.82;;;11.20;99.90;;;;;;5009809;28;20033;-91
2022/04/19 07:26:55;;;;;;;13.82;8.15;;;11.50;99.90;;;;;;5028250;28;20124;-91
2022/04/19 07:29:21;;;;;;;11.45;7.85;;;11.50;99.90;;;;;;5009561;28;20048;-91
2022/04/19 07:31:49;;;;;;;12.50;7.85;;;11.60;99.90;;;;;;5011241;28;20049;-91
2022/04/19 07:34:16;;;;;;;12.20;8.32;;;11.70;99.90;;;;;;5012214;28;20266;-92
2022/04/19 07:36:42;;;;;;;11.70;8.38;;;11.80;99.90;;;;;;5013671;28;20108;-92
2022/04/19 07:39:09;;;;;;;13.38;8.07;;;12.00;99.90;;;;;;5023964;28;20143;-93
2022/04/19 07:41:35;;;;;;;12.88;7.88;;;12.10;99.90;;;;;;5003095;28;20048;-91
2022/04/19 07:44:01;;;;;;;13.27;7.80;;;12.10;99.90;;;;;;5009936;28;20041;-92
2022/04/19 07:46:28;;;;;;;11.70;7.72;;;12.20;99.90;;;;;;5009572;28;20052;-92
2022/04/19 07:48:54;;;;;;;11.98;7.53;;;12.30;99.90;;;;;;5008432;28;20417;-93
2022/04/19 07:51:23;;;;;;;11.63;8.35;;;12.30;99.90;;;;;;5010014;28;20455;-93
2022/04/19 07:53:49;;;;;;;10.50;7.68;;;12.40;99.90;;;;;;5010989;28;20061;-92
2022/04/19 07:56:14;;;;;;;11.32;6.78;;;12.50;99.90;;;;;;5010470;28;20049;-92
2022/04/19 07:58:42;;;;;;;10.25;6.97;;;12.60;99.90;;;;;;5014404;28;20036;-91
2022/04/19 08:01:10;;;;;;;8.50;6.60;;;12.70;99.90;;;;;;5009214;28;20455;-92
2022/04/19 08:03:36;;;;;;;9.80;6.57;;;12.80;99.90;;;;;;5029211;28;20319;-91
2022/04/19 08:06:02;;;;;;;9.35;6.10;;;12.80;99.90;;;;;;5011433;28;20044;-91
2022/04/19 08:08:28;;;;;;;7.70;5.57;;;12.80;99.90;;;;;;5025289;28;20450;-92
2022/04/19 08:10:54;;;;;;;8.15;5.28;;;12.90;99.90;;;;;;5024730;28;20069;-91
2022/04/19 08:13:19;;;;;;;7.78;5.70;;;13.00;99.90;;;;;;5020875;28;20048;-91
2022/04/19 08:15:46;;;;;;;11.82;5.85;;;13.10;99.90;;;;;;5029322;28;20582;-92
2022/04/19 08:18:14;;;;;;;7.47;5.50;;;13.20;99.90;;;;;;5025434;28;20062;-91
2022/04/19 08:20:43;;;;;;;9.15;6.28;;;13.20;99.90;;;;;;5031557;28;20036;-92
2022/04/19 08:23:10;;;;;;;10.60;5.43;;;13.30;99.90;;;;;;5026122;28;20032;-92
2022/04/19 08:25:37;;;;;;;10.82;5.70;;;13.40;99.90;;;;;;5030509;28;20040;-92
2022/04/19 08:28:04;;;;;;;8.50;4.85;;;13.60;99.90;;;;;;5031432;28;20048;-92
2022/04/19 08:30:30;;;;;;;4.72;3.88;;;13.70;99.90;;;;;;5031583;28;20036;-91
2022/04/19 08:32:56;;;;;;;8.40;3.75;;;13.80;99.90;;;;;;5030097;28;20055;-92
2022/04/19 08:35:21;;;;;;;6.93;3.70;;;13.90;99.90;;;;;;5031392;28;20143;-92
2022/04/19 08:37:48;;;;;;;5.22;3.83;;;13.90;99.90;;;;;;5045222;28;20064;-93
2022/04/19 08:40:14;;;;;;;5.45;3.60;;;14.10;99.90;;;;;;5046861;28;20166;-92
2022/04/19 08:42:40;;;;;;;23.25;15.23;;;14.20;99.90;;;;;;5064205;28;20032;-91
2022/04/19 08:45:11;;;;;;;11.25;6.25;;;14.40;99.90;;;;;;5028893;28;20110;-91
2022/04/19 08:47:42;;;;;;;4.40;3.05;;;14.30;99.90;;;;;;5026001;28;20032;-91
2022/04/19 08:50:11;;;;;;;6.13;2.40;;;14.40;99.90;;;;;;5026948;28;20040;-91
2022/04/19 08:52:38;;;;;;;6.40;2.70;;;14.40;99.90;;;;;;5019565;28;20045;-92
2022/04/19 08:57:50;;;;;;;3.60;2.50;;;14.60;99.90;;;;;;5043927;28;20076;-92
2022/04/19 09:00:17;;;;;;;3.42;2.30;;;14.70;99.90;;;;;;5026774;28;20044;-92
2022/04/19 09:02:45;;;;;;;2.90;2.40;;;14.70;99.90;;;;;;5022123;28;20032;-92
2022/04/19 09:05:19;;;;;;;3.25;2.10;;;14.80;99.90;;;;;;5033612;28;20179;-92
2022/04/19 09:07:46;;;;;;;4.75;2.38;;;15.00;99.90;;;;;;5033724;28;20036;-90
2022/04/19 09:10:14;;;;;;;4.22;2.53;;;15.10;99.90;;;;;;5030776;28;20040;-93
2022/04/19 09:13:01;;;;;;;5.10;2.70;;;15.20;99.90;;;;;;5033155;28;20248;-93
2022/04/19 09:15:34;;;;;;;7.43;5.10;;;15.20;99.90;;;;;;5032653;28;20044;-93
2022/04/19 09:18:00;;;;;;;8.38;4.15;;;15.20;99.90;;;;;;5036348;28;20131;-92
2022/04/19 09:20:27;;;;;;;6.55;2.50;;;15.50;99.90;;;;;;5048253;28;20210;-92
2022/04/19 09:23:12;;;;;;;5.45;2.78;;;15.50;99.90;;;;;;5029473;28;20033;-92
2022/04/19 09:25:39;;;;;;;3.15;2.10;;;15.70;99.90;;;;;;5030530;28;20112;-92
2022/04/19 09:28:16;;;;;;;4.22;2.38;;;15.80;99.90;;;;;;5050370;28;20032;-91
2022/04/19 09:30:42;;;;;;;3.10;2.08;;;15.70;99.90;;;;;;5023629;28;20120;-92
2022/04/19 09:33:14;;;;;;;3.63;2.00;;;15.70;99.90;;;;;;5027787;28;20075;-91
2022/04/19 09:36:00;;;;;;;2.20;1.80;;;15.80;99.90;;;;;;5030628;28;20045;-92
2022/04/19 09:38:38;;;;;;;5.38;2.10;;;16.00;99.90;;;;;;5044532;28;20488;-93
2022/04/19 09:41:05;;;;;;;3.45;1.88;;;16.20;99.90;;;;;;5043542;28;20059;-93
2022/04/19 09:43:33;;;;;;;2.30;2.10;;;16.20;99.90;;;;;;5028641;28;20045;-92
2022/04/19 09:46:03;;;;;;;4.28;2.20;;;16.40;99.90;;;;;;5030220;28;20041;-92
2022/04/19 09:48:30;;;;;;;3.35;1.90;;;16.40;99.90;;;;;;5028878;28;20047;-92
2022/04/19 09:50:59;;;;;;;4.28;2.30;;;16.50;99.90;;;;;;5029186;28;20087;-92
2022/04/19 09:53:37;;;;;;;4.07;2.22;;;16.40;99.90;;;;;;5046782;28;20132;-92
2022/04/19 09:56:11;;;;;;;3.58;2.20;;;16.30;99.90;;;;;;5031564;28;20123;-91
2022/04/19 09:58:41;;;;;;;4.97;2.30;;;16.50;99.90;;;;;;5065781;28;20202;-92
2022/04/19 10:08:10;;;;;;;12.98;2.13;;;16.40;99.90;;;;;;5024716;28;20626;-93
2022/04/19 10:09:24;;;;;;;3.42;2.10;;;16.60;99.90;;;;;;5066713;28;20475;-91
2022/04/19 10:11:51;;;;;;;3.25;2.40;;;16.60;99.90;;;;;;5030272;28;20036;-90
2022/04/19 10:14:21;;;;;;;4.10;2.10;;;16.90;99.90;;;;;;5029259;28;20053;-91
2022/04/19 10:16:48;;;;;;;4.65;2.55;;;17.00;99.90;;;;;;5028436;28;20542;-91
2022/04/19 10:19:15;;;;;;;3.38;2.45;;;17.00;99.90;;;;;;5022040;28;20099;-92
2022/04/19 10:21:42;;;;;;;2.88;2.50;;;17.00;99.90;;;;;;5031581;28;20075;-92
2022/04/19 10:24:14;;;;;;;2.85;2.55;;;17.00;99.90;;;;;;5035097;28;20044;-92
2022/04/19 10:26:46;;;;;;;6.43;2.67;;;17.10;99.90;;;;;;5033234;28;20043;-91
2022/04/19 10:29:17;;;;;;;2.70;2.05;;;17.10;99.90;;;;;;5027517;28;20051;-91
2022/04/19 10:32:01;;;;;;;3.53;2.50;;;17.20;99.90;;;;;;5024021;28;20492;-93
2022/04/19 10:34:33;;;;;;;3.95;2.55;;;17.10;99.90;;;;;;5030623;28;20040;-91
2022/04/19 10:37:19;;;;;;;4.15;2.42;;;17.40;99.90;;;;;;5029550;28;20040;-91
2022/04/19 10:39:50;;;;;;;2.80;2.30;;;17.40;99.90;;;;;;5051081;28;20040;-91
2022/04/19 10:42:32;;;;;;;3.17;2.67;;;17.60;99.90;;;;;;5030962;28;20526;-91
2022/04/19 10:45:10;;;;;;;4.30;2.85;;;17.40;99.90;;;;;;5029394;28;20117;-92
2022/04/19 10:47:59;;;;;;;6.10;2.70;;;17.70;99.90;;;;;;5047972;28;20096;-91
2022/04/19 10:50:30;;;;;;;3.25;2.85;;;17.80;99.90;;;;;;5039795;28;20392;-90
2022/04/19 10:53:14;;;;;;;5.07;2.85;;;17.90;99.90;;;;;;5071016;28;20067;-92
2022/04/19 10:55:56;;;;;;;4.72;2.60;;;17.80;99.90;;;;;;5024726;28;20502;-91
2022/04/19 10:58:41;;;;;;;4.70;2.70;;;18.00;99.90;;;;;;5025034;28;20044;-91
2022/04/19 11:01:26;;;;;;;3.50;2.25;;;18.10;99.90;;;;;;5024880;28;20034;-93
2022/04/19 11:03:52;;;;;;;4.80;2.78;;;18.20;99.90;;;;;;5058778;28;20032;-90
2022/04/19 11:06:33;;;;;;;6.07;3.10;;;18.30;99.90;;;;;;5021228;28;20064;-92
2022/04/19 11:09:23;;;;;;;4.15;2.92;;;18.20;99.90;;;;;;5043275;28;20149;-90
2022/04/19 11:11:54;;;;;;;3.25;2.70;;;18.10;99.90;;;;;;5042257;28;20093;-94
2022/04/19 11:14:26;;;;;;;5.95;2.78;;;18.10;99.90;;;;;;5032103;28;20530;-91
2022/04/19 11:17:13;;;;;;;11.02;3.10;;;18.30;99.90;;;;;;5039620;28;20040;-92
2022/04/19 11:19:50;;;;;;;5.90;3.58;;;18.50;99.90;;;;;;5048084;28;20045;-93
2022/04/19 11:22:29;;;;;;;6.63;2.95;;;18.60;99.90;;;;;;5047924;28;22085;-91
2022/04/19 11:25:07;;;;;;;3.70;2.63;;;18.60;99.90;;;;;;5028646;28;20051;-91
2022/04/19 11:27:54;;;;;;;4.15;2.60;;;18.50;99.90;;;;;;5028368;28;20055;-92
2022/04/19 11:30:21;;;;;;;4.40;3.05;;;18.70;99.90;;;;;;5023951;28;20051;-91
2022/04/19 11:32:59;;;;;;;5.35;2.50;;;18.50;99.90;;;;;;5029897;28;20041;-90
2022/04/19 11:35:26;;;;;;;4.68;2.70;;;18.70;99.90;;;;;;5021517;28;20801;-92
2022/04/19 11:37:52;;;;;;;4.55;2.80;;;18.80;99.90;;;;;;5028112;28;20047;-92
2022/04/19 11:48:50;;;;;;;7.28;2.58;;;19.20;99.90;;;;;;5046152;28;20149;-91
2022/04/19 11:51:19;;;;;;;7.15;2.80;;;19.30;99.90;;;;;;5017582;28;20076;-91
2022/04/19 11:53:52;;;;;;;4.63;2.85;;;19.50;99.90;;;;;;5026745;28;20040;-90
2022/04/19 11:56:18;;;;;;;5.65;2.95;;;19.40;99.90;;;;;;5028140;28;20121;-91
2022/04/19 11:58:52;;;;;;;3.50;3.05;;;19.50;99.90;;;;;;5033274;28;20434;-92
2022/04/19 12:01:18;;;;;;;4.30;2.75;;;19.60;99.90;;;;;;5022614;28;20481;-91
2022/04/19 12:03:44;;;;;;;4.53;2.90;;;19.50;99.90;;;;;;5016032;28;20029;-91
2022/04/19 12:06:15;;;;;;;7.25;3.00;;;19.50;99.90;;;;;;5027656;28;20052;-91
2022/04/19 12:08:46;;;;;;;3.90;2.13;;;19.80;99.90;;;;;;5027589;28;20039;-90
2022/04/19 12:11:17;;;;;;;3.78;2.60;;;19.90;99.90;;;;;;5046527;28;20174;-92
2022/04/19 12:13:47;;;;;;;4.10;2.70;;;19.60;99.90;;;;;;5029049;28;20057;-92
2022/04/19 12:16:37;;;;;;;3.80;2.20;;;19.70;99.90;;;;;;5043343;28;20067;-92
2022/04/19 12:19:09;;;;;;;6.05;2.50;;;20.00;99.90;;;;;;5040192;28;20082;-92
2022/04/19 12:21:40;;;;;;;2.15;1.95;;;19.70;99.90;;;;;;5023482;28;20032;-92
2022/04/19 12:24:26;;;;;;;3.85;2.40;;;20.10;99.90;;;;;;5009569;28;20039;-92
2022/04/19 12:27:08;;;;;;;3.40;2.75;;;20.00;99.90;;;;;;5008933;28;20036;-91
2022/04/19 12:29:36;;;;;;;3.15;2.70;;;20.20;99.90;;;;;;5015256;28;20748;-92
2022/04/19 12:32:03;;;;;;;3.35;2.47;;;20.30;99.90;;;;;;5023165;28;20578;-92
2022/04/19 12:34:39;;;;;;;3.17;2.60;;;20.10;99.90;;;;;;5021536;28;20036;-91
2022/04/19 12:37:10;;;;;;;2.30;2.10;;;20.20;99.90;;;;;;5041341;28;20045;-91
2022/04/19 12:39:36;;;;;;;3.03;2.15;;;20.20;99.90;;;;;;5025602;28;20482;-92
2022/04/19 12:42:07;;;;;;;3.72;2.30;;;20.30;99.90;;;;;;5021469;28;20178;-91
2022/04/19 12:44:37;;;;;;;3.05;2.10;;;20.30;99.90;;;;;;5028571;28;20147;-92
2022/04/19 12:47:16;;;;;;;3.85;2.53;;;20.60;99.90;;;;;;5020707;28;20037;-92
2022/04/19 12:49:46;;;;;;;3.05;2.50;;;20.70;99.90;;;;;;5026818;28;20125;-92
2022/04/19 12:52:14;;;;;;;3.92;2.30;;;20.90;99.90;;;;;;5016858;28;20727;-93
2022/04/19 12:54:46;;;;;;;3.63;2.40;;;21.00;99.90;;;;;;5027088;28;20517;-91
2022/04/19 12:59:44;;;;;;;5.10;2.60;;;20.80;99.90;;;;;;5042005;28;20036;-92
2022/04/19 13:02:13;;;;;;;3.78;2.92;;;20.80;99.90;;;;;;5027332;28;20068;-92
2022/04/19 13:04:40;;;;;;;3.47;2.42;;;21.10;99.90;;;;;;5022738;28;20032;-91
2022/04/19 13:12:35;;;;;;;3.92;2.00;;;21.10;99.90;;;;;;5063499;28;20072;-92
2022/04/19 13:15:04;;;;;;;5.93;2.15;;;21.40;99.90;;;;;;5023519;28;20127;-91
2022/04/19 13:17:37;;;;;;;2.78;2.50;;;21.30;99.90;;;;;;5023397;28;20048;-91
2022/04/19 13:20:04;;;;;;;3.78;2.20;;;20.90;99.90;;;;;;5031961;28;20075;-90
2022/04/19 13:22:30;;;;;;;3.20;2.55;;;21.00;99.90;;;;;;5019804;28;20415;-91
2022/04/19 13:24:57;;;;;;;4.47;3.00;;;21.30;99.90;;;;;;5046964;28;20048;-91
2022/04/19 13:27:25;;;;;;;3.50;2.53;;;20.90;99.90;;;;;;5021359;28;20032;-91
2022/04/19 13:29:53;;;;;;;6.72;2.80;;;20.90;99.90;;;;;;5041144;28;20056;-92
2022/04/19 13:32:20;;;;;;;2.70;2.13;;;19.50;99.90;;;;;;5021055;28;20055;-92
2022/04/19 13:34:46;;;;;;;13.95;2.63;;;20.50;99.90;;;;;;5023643;28;20484;-92